Time;durP1;ratioP1;P1;durP2;ratioP2;P2;SDS_P1;SDS_P2;PMS_P1;PMS_P2;Temp;Humidity;BMP_temperature;BMP_pressure;BME280_temperature;BME280_humidity;BME280_pressure;Samples;Min_cycle;Max_cycle;Signal;HPM_P1;HPM_P2
2023/10/04 07:05:15;;;;;;;;;0.33;0.33;;;;;26.78;39.59;102769.13;4911989;28;45478;-80
2023/10/04 07:07:44;;;;;;;;;2.00;1.00;;;;;27.00;39.25;102806.81;4919001;28;45346;-79
2023/10/04 07:10:13;;;;;;;;;1.33;1.33;;;;;27.00;39.76;102807.66;4918902;28;45547;-79
2023/10/04 07:12:39;;;;;;;;;1.33;1.33;;;;;26.93;39.20;102796.00;4919586;28;45523;-79
2023/10/04 07:15:06;;;;;;;;;2.00;1.33;;;;;26.93;39.73;102798.66;4919504;28;45391;-80
2023/10/04 07:17:32;;;;;;;;;0.33;0.33;;;;;27.04;39.37;102811.66;4920024;28;45341;-79
2023/10/04 07:19:58;;;;;;;;;0.00;0.00;;;;;26.92;39.73;102788.97;4919594;28;45301;-79
2023/10/04 07:22:29;;;;;;;;;1.00;1.00;;;;;27.06;39.38;102808.84;4902742;28;45490;-79
2023/10/04 07:24:58;;;;;;;;;1.33;0.33;;;;;26.99;39.35;102797.13;4919708;28;47114;-80
2023/10/04 07:27:24;;;;;;;;;0.67;0.67;;;;;27.07;39.54;102810.50;4920070;28;45404;-80
2023/10/04 07:29:50;;;;;;;;;0.00;0.00;;;;;27.05;39.35;102807.16;4920084;28;45420;-79
2023/10/04 07:32:16;;;;;;;;;3.00;0.00;;;;;27.01;40.07;102805.84;4906792;28;45384;-80
2023/10/04 07:34:41;;;;;;;;;1.00;1.00;;;;;27.09;39.94;102823.72;4900520;29;45304;-78
2023/10/04 07:37:07;;;;;;;;;1.00;1.00;;;;;26.98;40.04;102812.34;4900889;29;45432;-80
2023/10/04 07:39:33;;;;;;;;;0.67;0.33;;;;;27.02;39.37;102812.84;4910663;28;45486;-80
2023/10/04 07:41:59;;;;;;;;;0.00;0.00;;;;;27.11;40.07;102819.03;4919770;28;45365;-80
2023/10/04 07:44:26;;;;;;;;;1.00;1.00;;;;;27.07;39.70;102818.50;4919353;28;47106;-80
2023/10/04 07:46:51;;;;;;;;;2.67;0.33;;;;;27.12;39.99;102829.53;4919231;28;45330;-80
2023/10/04 07:49:17;;;;;;;;;0.00;0.00;;;;;27.12;39.54;102829.53;4919378;28;45410;-79
2023/10/04 07:51:43;;;;;;;;;1.00;0.67;;;;;27.00;39.48;102818.34;4919594;28;45272;-79
2023/10/04 07:54:09;;;;;;;;;2.33;1.00;;;;;26.99;40.06;102811.34;4919166;28;46090;-79
2023/10/04 07:56:34;;;;;;;;;0.00;0.00;;;;;27.04;39.87;102822.34;4919243;28;45243;-80
2023/10/04 07:59:01;;;;;;;;;1.00;1.00;;;;;27.10;40.32;102825.34;4919458;28;45280;-80
2023/10/04 08:01:27;;;;;;;;;2.00;2.00;;;;;27.18;40.18;102849.44;4919217;28;45402;-79
2023/10/04 08:03:52;;;;;;;;;1.67;1.67;;;;;27.19;40.34;102848.44;4918831;28;45454;-79
2023/10/04 08:06:18;;;;;;;;;2.00;0.00;;;;;27.18;40.30;102860.97;4918616;28;45316;-79
2023/10/04 08:08:45;;;;;;;;;0.67;0.67;;;;;27.21;39.96;102853.63;4919293;28;45344;-79
2023/10/04 08:11:11;;;;;;;;;3.33;1.00;;;;;27.17;39.89;102845.09;4919038;28;45645;-79
2023/10/04 08:13:38;;;;;;;;;2.00;2.00;;;;;27.18;40.21;102846.78;4919059;28;47421;-79
2023/10/04 08:16:04;;;;;;;;;2.00;2.00;;;;;27.24;40.06;102856.81;4919532;28;45444;-79
2023/10/04 08:18:30;;;;;;;;;0.33;0.33;;;;;27.16;40.21;102846.94;4919008;28;45438;-79
2023/10/04 08:20:55;;;;;;;;;1.67;0.00;;;;;27.26;39.76;102864.63;4918906;28;45342;-79
2023/10/04 08:23:23;;;;;;;;;1.67;1.67;;;;;27.18;40.58;102849.44;4917598;28;47462;-79
2023/10/04 08:25:51;;;;;;;;;2.33;1.33;;;;;27.16;40.36;102852.28;4919149;28;45335;-80
2023/10/04 08:28:17;;;;;;;;;0.67;0.67;;;;;27.22;40.42;102849.94;4918578;28;45277;-79
2023/10/04 08:30:42;;;;;;;;;1.67;0.67;;;;;27.25;40.53;102855.78;4918875;28;45265;-79
2023/10/04 08:33:08;;;;;;;;;1.00;1.00;;;;;27.26;40.39;102852.13;4917713;28;58508;-79
2023/10/04 08:35:36;;;;;;;;;0.00;0.00;;;;;27.24;40.12;102854.13;4918784;28;45348;-80
2023/10/04 08:38:06;;;;;;;;;1.67;0.00;;;;;27.27;40.54;102847.63;4919373;28;45304;-80
2023/10/04 08:40:36;;;;;;;;;0.00;0.00;;;;;27.27;40.39;102850.28;4918676;28;45521;-80
2023/10/04 08:43:02;;;;;;;;;2.00;1.00;;;;;27.27;40.35;102850.28;4918303;28;47029;-80
2023/10/04 08:45:29;;;;;;;;;0.00;0.00;;;;;27.27;40.75;102856.44;4918687;28;45327;-79
2023/10/04 08:47:57;;;;;;;;;2.00;0.00;;;;;27.23;40.23;102848.94;4918244;28;45503;-79
2023/10/04 08:51:07;;;;;;;;;0.67;0.67;;;;;27.19;40.72;102819.06;4918492;28;45441;-79
2023/10/04 08:54:00;;;;;;;;;1.00;1.00;;;;;27.28;40.34;102831.41;4897034;29;47247;-79
2023/10/04 08:56:30;;;;;;;;;2.33;1.00;;;;;27.13;40.83;102811.69;4896331;29;45667;-79
2023/10/04 08:58:59;;;;;;;;;2.00;1.00;;;;;27.25;40.57;102829.06;4897342;29;45389;-79
2023/10/04 09:01:25;;;;;;;;;1.33;1.33;;;;;27.20;40.75;102828.72;4896772;29;45460;-79
2023/10/04 09:03:52;;;;;;;;;0.00;0.00;;;;;27.26;40.41;102840.59;4896587;29;46345;-79
2023/10/04 09:06:18;;;;;;;;;2.00;2.00;;;;;27.15;40.42;102829.22;4896422;28;45676;-80
2023/10/04 09:08:46;;;;;;;;;1.00;1.00;;;;;27.31;40.21;102856.13;4896920;29;45304;-80
2023/10/04 09:11:15;;;;;;;;;1.00;1.00;;;;;27.27;40.35;102850.28;4897385;29;45484;-80
2023/10/04 09:13:48;;;;;;;;;0.00;0.00;;;;;27.16;40.64;102833.59;4897158;29;47224;-80
2023/10/04 09:16:32;;;;;;;;;2.00;0.00;;;;;27.28;40.76;102852.78;4896601;29;45342;-81
2023/10/04 09:19:17;;;;;;;;;1.00;1.00;;;;;27.34;40.55;102855.78;4897000;29;45285;-80
2023/10/04 09:21:50;;;;;;;;;0.00;0.00;;;;;27.34;40.31;102851.28;4897083;29;45442;-80
2023/10/04 09:24:16;;;;;;;;;1.33;0.00;;;;;27.36;40.62;102859.97;4896669;29;46525;-80
2023/10/04 09:26:54;;;;;;;;;0.67;0.33;;;;;27.37;40.81;102858.13;4896992;29;45501;-80
2023/10/04 09:29:36;;;;;;;;;0.33;0.00;;;;;27.37;40.93;102853.63;4900077;28;45445;-80
2023/10/04 09:32:03;;;;;;;;;0.00;0.00;;;;;27.39;41.02;102848.94;4913347;28;45332;-80
2023/10/04 09:34:30;;;;;;;;;1.00;0.00;;;;;27.27;40.42;102819.03;4917886;28;46241;-80
2023/10/04 09:36:56;;;;;;;;;1.00;1.00;;;;;27.27;40.23;102819.03;4917868;28;45443;-81
2023/10/04 09:39:28;;;;;;;;;1.67;1.00;;;;;27.42;40.21;102841.56;4918216;28;45582;-81
2023/10/04 09:41:57;;;;;;;;;1.67;1.00;;;;;27.29;40.31;102826.91;4918175;28;45284;-80
2023/10/04 09:44:25;;;;;;;;;0.33;0.33;;;;;27.40;40.77;102855.94;4916658;28;45383;-85
2023/10/04 09:47:02;;;;;;;;;1.00;1.00;;;;;27.46;40.27;102853.59;4917826;28;45417;-79
2023/10/04 09:49:32;;;;;;;;;5.33;1.00;;;;;27.42;40.69;102834.41;4918144;28;45279;-79
2023/10/04 09:52:00;;;;;;;;;0.67;0.67;;;;;27.48;40.84;102846.25;4916957;28;45382;-78
2023/10/04 09:54:27;;;;;;;;;4.67;1.00;;;;;27.42;40.77;102833.56;4917878;28;46630;-79
2023/10/04 09:56:54;;;;;;;;;3.00;2.00;;;;;27.51;40.46;102829.84;4916834;28;45463;-78
2023/10/04 09:59:21;;;;;;;;;1.00;1.00;;;;;27.54;40.27;102834.88;4915901;28;45277;-78
2023/10/04 10:02:09;;;;;;;;;1.00;1.00;;;;;27.55;40.37;102828.53;4916182;28;45275;-78
2023/10/04 10:04:43;;;;;;;;;1.33;0.67;;;;;27.40;40.38;102810.50;4910118;28;46694;-79
2023/10/04 10:07:18;;;;;;;;;2.33;1.00;;;;;27.51;40.27;102808.47;4918124;28;45400;-79
2023/10/04 10:09:52;;;;;;;;;2.00;2.00;;;;;27.62;40.37;102832.19;4920670;28;45352;-80
2023/10/04 10:12:20;;;;;;;;;2.67;2.00;;;;;27.51;40.92;102812.00;4925087;28;45553;-79
2023/10/04 10:14:46;;;;;;;;;3.00;1.00;;;;;27.43;40.59;102798.63;4929009;28;46665;-78
2023/10/04 10:17:13;;;;;;;;;3.00;1.67;;;;;27.63;40.96;102817.81;4930083;28;45435;-78
2023/10/04 10:19:38;;;;;;;;;1.33;1.33;;;;;27.69;40.29;102821.63;4930562;28;45475;-79
2023/10/04 10:22:16;;;;;;;;;2.00;2.00;;;;;27.69;40.24;102816.28;4923866;28;45529;-78
2023/10/04 10:24:56;;;;;;;;;2.00;1.00;;;;;27.70;40.51;102817.13;4920036;28;45432;-78
2023/10/04 10:27:25;;;;;;;;;2.00;1.00;;;;;27.69;40.15;102812.81;4919744;28;45344;-76
2023/10/04 10:29:52;;;;;;;;;1.00;1.00;;;;;27.70;40.74;102807.28;4919933;28;45425;-78
2023/10/04 10:32:22;;;;;;;;;1.00;1.00;;;;;27.70;40.36;102799.25;4916646;28;46530;-78
2023/10/04 10:34:52;;;;;;;;;1.00;1.00;;;;;27.71;40.54;102803.56;4920297;28;45325;-79
2023/10/04 10:37:22;;;;;;;;;2.00;2.00;;;;;27.72;41.00;102818.63;4920136;28;45523;-78
2023/10/04 10:39:52;;;;;;;;;0.67;0.67;;;;;27.68;40.66;102811.97;4920693;28;45316;-79
2023/10/04 10:42:19;;;;;;;;;1.33;1.33;;;;;27.70;40.09;102807.28;4920262;28;45591;-79
2023/10/04 10:44:46;;;;;;;;;1.00;1.00;;;;;27.73;41.04;102806.94;4920004;28;47120;-78
2023/10/04 10:47:23;;;;;;;;;1.33;1.33;;;;;27.73;40.25;102806.94;4919896;28;45615;-78
2023/10/04 10:50:04;;;;;;;;;1.00;1.00;;;;;27.76;40.18;102812.94;4920776;28;45463;-79
2023/10/04 10:52:44;;;;;;;;;1.67;0.33;;;;;27.70;40.60;102799.25;4920384;28;45383;-78
2023/10/04 10:55:16;;;;;;;;;1.00;1.00;;;;;27.71;40.95;102798.22;4920592;28;46436;-79
2023/10/04 10:57:44;;;;;;;;;3.00;1.67;;;;;27.74;40.35;102808.59;4919776;28;45347;-78
2023/10/04 11:00:19;;;;;;;;;1.00;0.00;;;;;27.74;40.37;102811.25;4920105;28;45386;-79
2023/10/04 11:02:53;;;;;;;;;1.33;1.00;;;;;27.74;40.13;102807.75;4920046;28;45228;-79
2023/10/04 11:05:21;;;;;;;;;0.00;0.00;;;;;27.74;40.47;102800.56;4918409;28;47525;-78
2023/10/04 11:07:48;;;;;;;;;1.00;0.33;;;;;27.72;40.38;102801.75;4919926;28;45350;-78
2023/10/04 11:10:16;;;;;;;;;1.00;1.00;;;;;27.74;40.40;102797.03;4902830;28;45383;-78
2023/10/04 11:12:42;;;;;;;;;0.00;0.00;;;;;27.75;40.97;102782.69;4920672;28;45368;-79
2023/10/04 11:15:08;;;;;;;;;2.33;1.00;;;;;27.63;40.90;102756.34;4920052;28;47135;-78
2023/10/04 11:17:36;;;;;;;;;1.00;1.00;;;;;27.42;40.72;102724.81;4919843;28;45296;-79
2023/10/04 11:20:12;;;;;;;;;1.00;1.00;;;;;27.74;40.97;102767.63;4920379;28;45300;-78
2023/10/04 11:22:39;;;;;;;;;0.67;0.00;;;;;27.66;40.72;102765.84;4920467;28;45353;-79
2023/10/04 11:25:07;;;;;;;;;1.67;0.33;;;;;27.69;40.95;102767.34;4920597;28;46205;-79
2023/10/04 11:27:33;;;;;;;;;1.00;1.00;;;;;27.73;41.04;102774.84;4920549;28;45317;-79
2023/10/04 11:29:59;;;;;;;;;2.67;1.00;;;;;27.57;40.30;102751.66;4920353;28;45313;-78
2023/10/04 11:32:30;;;;;;;;;1.67;1.00;;;;;27.67;40.87;102763.97;4920199;28;45261;-78
2023/10/04 11:35:07;;;;;;;;;0.00;0.00;;;;;27.47;40.34;102735.81;4919984;28;46395;-79
2023/10/04 11:37:33;;;;;;;;;1.33;1.00;;;;;27.69;40.53;102764.66;4920534;28;45424;-78
2023/10/04 11:39:59;;;;;;;;;1.33;1.00;;;;;27.72;40.36;102772.31;4920779;28;45401;-78
2023/10/04 11:42:25;;;;;;;;;3.00;1.00;;;;;27.52;40.18;102736.16;4919806;28;45296;-78
2023/10/04 11:44:50;;;;;;;;;1.00;0.00;;;;;27.65;40.28;102747.28;4920150;28;45872;-78
2023/10/04 11:47:32;;;;;;;;;0.00;0.00;;;;;27.72;40.72;102766.97;4919843;28;45448;-78
2023/10/04 11:49:59;;;;;;;;;1.00;1.00;;;;;27.69;40.85;102765.47;4919917;28;45385;-79
2023/10/04 11:52:32;;;;;;;;;3.00;1.00;;;;;27.71;40.59;102768.81;4919233;28;45456;-78
2023/10/04 11:54:58;;;;;;;;;1.00;1.00;;;;;27.71;40.78;102754.63;4919199;28;45542;-79
2023/10/04 11:57:28;;;;;;;;;1.00;1.00;;;;;27.71;40.81;102750.09;4919886;28;45386;-78
2023/10/04 11:59:58;;;;;;;;;1.00;1.00;;;;;27.71;40.38;102752.75;4920163;28;45411;-78
2023/10/04 12:02:25;;;;;;;;;0.33;0.33;;;;;27.71;40.39;102757.31;4919880;28;45286;-79
2023/10/04 12:04:51;;;;;;;;;4.33;1.00;;;;;27.60;40.86;102735.28;4919404;28;46390;-78
2023/10/04 12:07:17;;;;;;;;;3.33;1.00;;;;;27.71;41.13;102741.25;4919631;28;45404;-77
2023/10/04 12:09:42;;;;;;;;;1.00;1.00;;;;;27.70;40.46;102739.56;4919145;28;45361;-78
2023/10/04 12:12:07;;;;;;;;;4.00;1.00;;;;;27.63;40.77;102742.13;4919546;28;45344;-78
2023/10/04 12:14:34;;;;;;;;;3.00;2.00;;;;;27.58;40.94;102729.28;4918882;28;47160;-79
2023/10/04 12:17:03;;;;;;;;;2.33;2.00;;;;;27.70;40.93;102750.28;4918887;28;45345;-78
2023/10/04 12:19:30;;;;;;;;;1.00;1.00;;;;;27.69;40.53;102741.41;4917780;28;45385;-78
2023/10/04 12:21:56;;;;;;;;;1.00;1.00;;;;;27.68;40.05;102737.09;4918961;28;45319;-79
2023/10/04 12:24:22;;;;;;;;;1.00;0.00;;;;;27.54;39.71;102716.41;4918129;28;46594;-79
2023/10/04 12:26:48;;;;;;;;;0.67;0.67;;;;;27.57;39.74;102729.44;4919028;28;45494;-79
2023/10/04 12:29:13;;;;;;;;;3.00;1.00;;;;;27.64;39.69;102749.13;4919066;28;45373;-79
2023/10/04 12:31:39;;;;;;;;;1.67;1.33;;;;;27.58;39.71;102731.13;4917338;28;45531;-78
2023/10/04 12:34:05;;;;;;;;;2.67;0.67;;;;;27.58;39.38;102733.78;4918885;28;46247;-79
2023/10/04 12:36:30;;;;;;;;;1.00;1.00;;;;;27.58;38.65;102745.31;4918442;28;45451;-79
2023/10/04 12:38:55;;;;;;;;;1.00;1.00;;;;;27.32;39.23;102686.75;4918717;28;45403;-80
2023/10/04 12:41:21;;;;;;;;;1.00;1.00;;;;;27.59;38.17;102732.75;4919004;28;45311;-79
2023/10/04 12:43:47;;;;;;;;;4.00;2.00;;;;;27.57;38.10;102732.09;4917598;28;47139;-79
2023/10/04 12:46:13;;;;;;;;;4.33;2.00;;;;;27.57;38.17;102737.44;4918587;28;45380;-78
2023/10/04 12:48:38;;;;;;;;;1.00;1.00;;;;;27.55;38.53;102734.13;4919267;28;45285;-79
2023/10/04 12:51:03;;;;;;;;;1.00;1.00;;;;;27.53;37.92;102723.63;4918452;28;45241;-79
2023/10/04 12:53:29;;;;;;;;;1.00;1.00;;;;;27.52;38.24;102729.97;4917907;28;45354;-78
2023/10/04 12:55:54;;;;;;;;;3.33;2.00;;;;;27.37;37.78;102697.78;4918842;28;45313;-78
2023/10/04 12:58:20;;;;;;;;;3.00;1.33;;;;;27.51;38.20;102726.44;4918588;28;45327;-79
2023/10/04 13:00:50;;;;;;;;;2.67;1.67;;;;;27.41;37.84;102712.44;4917340;28;45443;-78
2023/10/04 13:03:16;;;;;;;;;3.00;1.67;;;;;27.30;38.18;102689.59;4918152;28;46214;-79
2023/10/04 13:05:42;;;;;;;;;0.33;0.33;;;;;27.50;37.90;102722.13;4917921;28;45575;-78
2023/10/04 13:08:08;;;;;;;;;1.33;1.00;;;;;27.39;38.39;102704.59;4918262;28;45450;-78
2023/10/04 13:10:37;;;;;;;;;0.67;0.33;;;;;27.47;38.13;102705.59;4918525;28;45753;-79
2023/10/04 13:13:03;;;;;;;;;3.00;2.00;;;;;27.46;38.65;102703.91;4917933;28;46549;-79
2023/10/04 13:15:29;;;;;;;;;3.33;2.00;;;;;27.36;38.68;102680.91;4918502;28;45496;-79
2023/10/04 13:17:54;;;;;;;;;1.33;1.33;;;;;27.46;38.87;102690.53;4918339;28;45428;-78
2023/10/04 13:20:25;;;;;;;;;0.00;0.00;;;;;27.48;38.36;102699.25;4918296;28;45253;-79
2023/10/04 13:22:52;;;;;;;;;3.00;1.67;;;;;27.48;39.05;102696.56;4917441;28;46601;-79
2023/10/04 13:25:17;;;;;;;;;1.67;1.67;;;;;27.43;38.37;102686.38;4917781;28;45284;-79
2023/10/04 13:27:44;;;;;;;;;2.00;1.00;;;;;27.46;38.72;102688.69;4918223;28;45255;-79
2023/10/04 13:30:10;;;;;;;;;2.67;0.00;;;;;27.47;38.42;102690.38;4918390;28;45468;-79
2023/10/04 13:32:36;;;;;;;;;3.33;1.67;;;;;27.40;39.26;102681.41;4917965;28;46216;-78
2023/10/04 13:35:01;;;;;;;;;1.33;1.33;;;;;27.35;38.52;102675.72;4917928;28;45480;-78
2023/10/04 13:37:27;;;;;;;;;2.33;2.00;;;;;27.47;39.13;102685.03;4919433;28;45399;-79
2023/10/04 13:39:55;;;;;;;;;3.00;2.00;;;;;27.44;38.94;102682.69;4920134;28;45375;-78
2023/10/04 13:42:21;;;;;;;;;4.67;1.33;;;;;27.36;38.73;102661.34;4920160;28;47199;-78
2023/10/04 13:44:46;;;;;;;;;0.67;0.67;;;;;27.39;38.69;102669.88;4922670;28;45436;-78
2023/10/04 13:47:11;;;;;;;;;2.67;1.00;;;;;27.48;38.78;102680.53;4922815;28;45895;-79
2023/10/04 13:49:38;;;;;;;;;0.00;0.00;;;;;27.43;39.18;102677.53;4922891;28;45477;-78
2023/10/04 13:52:04;;;;;;;;;2.33;1.00;;;;;27.38;39.15;102660.16;4922159;28;46530;-78
2023/10/04 13:54:32;;;;;;;;;1.00;1.00;;;;;27.45;39.25;102670.19;4920077;28;46195;-78
2023/10/04 13:57:05;;;;;;;;;3.00;2.00;;;;;27.28;38.84;102641.66;4923197;28;45423;-79
2023/10/04 13:59:30;;;;;;;;;1.67;0.00;;;;;27.46;39.60;102661.13;4922073;28;45375;-79
2023/10/04 14:01:56;;;;;;;;;1.00;1.00;;;;;27.39;39.32;102653.00;4920757;28;45983;-79
2023/10/04 14:04:22;;;;;;;;;1.33;1.33;;;;;27.42;39.32;102662.50;4920794;28;52976;-79
2023/10/04 14:06:47;;;;;;;;;1.33;1.00;;;;;27.44;38.92;102664.00;4920625;28;45523;-78
2023/10/04 14:09:17;;;;;;;;;2.00;2.00;;;;;27.31;39.52;102648.50;4920539;28;45464;-79
2023/10/04 14:11:43;;;;;;;;;2.00;2.00;;;;;27.33;39.08;102657.19;4922962;28;46891;-78
2023/10/04 14:14:09;;;;;;;;;4.33;1.67;;;;;27.32;39.06;102662.72;4924028;28;45413;-78
2023/10/04 14:16:35;;;;;;;;;1.00;1.00;;;;;27.31;39.78;102663.69;4924587;28;45344;-78
2023/10/04 14:19:00;;;;;;;;;1.33;0.00;;;;;27.30;39.16;102654.84;4923189;28;45406;-78
2023/10/04 14:21:26;;;;;;;;;1.00;1.00;;;;;27.40;39.76;102676.03;4920497;28;46380;-79
2023/10/04 14:23:51;;;;;;;;;1.33;1.33;;;;;27.36;39.08;102666.69;4920825;28;45242;-79
2023/10/04 14:26:19;;;;;;;;;2.00;1.00;;;;;27.27;38.99;102650.69;4919872;28;45229;-79
2023/10/04 14:28:45;;;;;;;;;1.00;1.00;;;;;27.37;39.68;102666.53;4921308;28;45630;-78
2023/10/04 14:31:12;;;;;;;;;0.33;0.33;;;;;27.29;39.49;102651.38;4922329;28;46177;-79
2023/10/04 14:33:41;;;;;;;;;0.67;0.67;;;;;27.28;39.65;102648.84;4920754;28;45377;-78
2023/10/04 14:36:07;;;;;;;;;0.67;0.67;;;;;27.28;39.39;102660.38;4920706;28;45360;-77
2023/10/04 14:38:33;;;;;;;;;2.67;1.00;;;;;27.37;39.47;102671.88;4920988;28;45372;-79
2023/10/04 14:41:01;;;;;;;;;1.00;1.00;;;;;27.25;39.49;102650.03;4920600;28;47212;-79
2023/10/04 14:43:28;;;;;;;;;0.00;0.00;;;;;27.36;39.92;102654.16;4920371;28;45480;-78
2023/10/04 14:45:53;;;;;;;;;3.00;2.33;;;;;27.28;39.52;102630.97;4920017;28;45412;-78
2023/10/04 14:48:19;;;;;;;;;1.00;1.00;;;;;27.33;39.38;102638.47;4920238;28;45428;-80
2023/10/04 14:50:49;;;;;;;;;1.00;1.00;;;;;27.37;39.91;102636.28;4920106;28;46723;-80
2023/10/04 14:53:16;;;;;;;;;4.67;1.00;;;;;27.22;39.64;102620.16;4919804;28;45419;-79
2023/10/04 14:55:41;;;;;;;;;1.00;1.00;;;;;27.36;40.06;102639.97;4919660;28;45414;-79
2023/10/04 14:58:06;;;;;;;;;1.00;1.00;;;;;27.14;40.11;102596.97;4920406;28;45343;-79
2023/10/04 15:00:31;;;;;;;;;1.00;1.00;;;;;27.32;39.66;102628.81;4919916;28;45438;-79
2023/10/04 15:02:58;;;;;;;;;0.00;0.00;;;;;27.35;39.42;102624.97;4920104;28;45458;-80
2023/10/04 15:05:24;;;;;;;;;0.00;0.00;;;;;27.28;39.84;102620.28;4920004;28;45273;-79
2023/10/04 15:07:52;;;;;;;;;2.00;1.33;;;;;27.34;40.06;102624.13;4919983;28;45396;-79
2023/10/04 15:10:22;;;;;;;;;1.00;1.00;;;;;27.34;39.49;102625.94;4920199;28;46214;-79
2023/10/04 15:12:48;;;;;;;;;1.33;1.00;;;;;27.21;39.60;102597.09;4920094;28;45333;-80
2023/10/04 15:15:15;;;;;;;;;2.00;2.00;;;;;27.27;39.51;102609.78;4919897;28;45369;-80
2023/10/04 15:17:43;;;;;;;;;1.00;1.00;;;;;27.16;40.08;102592.28;4920145;28;45232;-79
2023/10/04 15:20:09;;;;;;;;;1.00;1.00;;;;;27.33;39.60;102621.59;4919510;28;47167;-80
2023/10/04 15:22:41;;;;;;;;;1.67;0.67;;;;;27.28;40.09;102611.44;4919153;28;45310;-81
2023/10/04 15:25:11;;;;;;;;;1.00;0.67;;;;;27.29;40.00;102613.94;4919909;28;45392;-80
2023/10/04 15:27:38;;;;;;;;;1.00;1.00;;;;;27.31;39.61;102600.41;4920199;28;45542;-79
2023/10/04 15:30:19;;;;;;;;;2.67;2.00;;;;;27.28;39.44;102603.41;4919930;28;46053;-80
2023/10/04 15:32:45;;;;;;;;;0.00;0.00;;;;;27.30;39.83;102604.06;4917944;28;45600;-76
2023/10/04 15:35:13;;;;;;;;;2.67;1.33;;;;;27.17;39.40;102580.56;4919507;28;45534;-82
2023/10/04 15:37:39;;;;;;;;;1.00;0.00;;;;;27.32;39.50;102609.25;4919430;28;45360;-83
2023/10/04 15:40:06;;;;;;;;;2.00;2.00;;;;;27.26;39.60;102594.75;4919401;28;47148;-83
2023/10/04 15:42:32;;;;;;;;;0.33;0.33;;;;;27.18;39.68;102577.75;4919920;28;45380;-83
2023/10/04 15:44:57;;;;;;;;;2.67;1.00;;;;;27.32;39.77;102602.09;4920146;28;45285;-83
2023/10/04 15:47:22;;;;;;;;;1.67;1.67;;;;;27.33;40.24;102601.06;4919891;28;45253;-83
2023/10/04 15:49:48;;;;;;;;;1.00;1.00;;;;;27.03;40.34;102555.41;4920030;28;47148;-84
2023/10/04 15:52:13;;;;;;;;;2.00;2.00;;;;;27.33;40.19;102606.41;4920138;28;45290;-84
2023/10/04 15:54:38;;;;;;;;;1.00;1.00;;;;;27.33;40.25;102601.06;4919531;28;45301;-84
2023/10/04 15:57:03;;;;;;;;;1.00;1.00;;;;;27.29;40.09;102594.41;4918610;28;45371;-83
2023/10/04 15:59:29;;;;;;;;;2.67;0.67;;;;;27.34;40.27;102599.22;4919272;28;45497;-83
2023/10/04 16:01:54;;;;;;;;;2.00;1.00;;;;;27.33;40.78;102598.38;4918842;28;45356;-83
2023/10/04 16:04:21;;;;;;;;;1.00;1.00;;;;;27.13;40.70;102572.09;4918435;28;45339;-76
2023/10/04 16:06:47;;;;;;;;;1.67;1.33;;;;;27.19;40.17;102578.59;4918833;28;45364;-76
2023/10/04 16:09:14;;;;;;;;;1.00;1.00;;;;;27.36;40.53;102608.72;4918934;28;46063;-75
2023/10/04 16:11:39;;;;;;;;;0.00;0.00;;;;;27.37;40.88;102612.25;4919111;28;45352;-78
2023/10/04 16:14:05;;;;;;;;;4.00;1.00;;;;;27.32;40.14;102588.72;4919134;28;45541;-77
2023/10/04 16:16:31;;;;;;;;;5.33;1.00;;;;;27.29;40.22;102584.56;4916842;28;45468;-82
2023/10/04 16:18:56;;;;;;;;;2.00;1.33;;;;;27.39;40.30;102600.38;4917061;28;45547;-79
2023/10/04 16:21:22;;;;;;;;;2.00;0.33;;;;;27.36;40.71;102591.88;4917978;28;45398;-80
2023/10/04 16:23:47;;;;;;;;;0.00;0.00;;;;;27.41;40.89;102594.84;4917928;28;45384;-76
2023/10/04 16:26:13;;;;;;;;;1.67;1.00;;;;;27.21;40.92;102560.53;4917835;28;45331;-80
2023/10/04 16:28:39;;;;;;;;;1.00;0.00;;;;;27.39;41.08;102586.19;4916582;28;48267;-78
2023/10/04 16:31:04;;;;;;;;;0.67;0.67;;;;;27.42;40.24;102595.69;4917823;28;45400;-81
2023/10/04 16:33:29;;;;;;;;;0.67;0.67;;;;;27.34;40.91;102572.50;4917893;28;45344;-75
2023/10/04 16:35:56;;;;;;;;;1.33;0.33;;;;;27.44;40.96;102593.66;4917752;28;45363;-76
2023/10/04 16:38:21;;;;;;;;;1.33;1.33;;;;;27.31;40.65;102581.69;4917656;28;47335;-81
2023/10/04 16:40:46;;;;;;;;;1.67;1.67;;;;;27.44;41.06;102607.03;4917394;28;45461;-79
2023/10/04 16:43:12;;;;;;;;;2.00;0.33;;;;;27.41;41.01;102605.53;4917606;28;45542;-79
2023/10/04 16:45:38;;;;;;;;;4.67;1.67;;;;;27.38;40.90;102600.53;4917528;28;45613;-79
2023/10/04 16:48:04;;;;;;;;;0.33;0.33;;;;;27.27;40.94;102583.06;4917982;28;46199;-79
2023/10/04 16:50:30;;;;;;;;;0.33;0.33;;;;;27.20;40.89;102577.56;4915728;28;45435;-80
2023/10/04 16:52:55;;;;;;;;;1.00;1.00;;;;;27.30;40.73;102593.38;4918192;28;45255;-82
2023/10/04 16:55:21;;;;;;;;;0.00;0.00;;;;;27.43;41.17;102613.41;4918157;28;45526;-83
2023/10/04 16:57:46;;;;;;;;;0.00;0.00;;;;;27.38;40.68;102597.84;4917955;28;46954;-78
2023/10/04 17:00:15;;;;;;;;;0.67;0.00;;;;;27.43;40.90;102602.69;4917991;28;45348;-77
2023/10/04 17:02:41;;;;;;;;;0.00;0.00;;;;;27.42;41.22;102612.56;4915925;28;45470;-78
2023/10/04 17:05:09;;;;;;;;;1.00;1.00;;;;;27.38;40.49;102608.53;4914183;28;45344;-77
2023/10/04 17:07:34;;;;;;;;;1.00;1.00;;;;;27.40;40.75;102611.91;4916804;28;46044;-77
2023/10/04 17:09:59;;;;;;;;;1.67;1.00;;;;;27.38;40.99;102609.38;4916869;28;45404;-75
2023/10/04 17:12:25;;;;;;;;;2.33;1.00;;;;;27.36;41.10;102614.06;4916945;28;45412;-78
2023/10/04 17:14:54;;;;;;;;;1.00;1.00;;;;;27.29;40.64;102603.25;4916629;28;45361;-76
2023/10/04 17:17:21;;;;;;;;;0.33;0.33;;;;;27.05;40.57;102569.41;4916290;28;45517;-75
2023/10/04 17:19:48;;;;;;;;;1.00;1.00;;;;;27.07;41.02;102573.59;4917097;28;45422;-78
2023/10/04 17:22:14;;;;;;;;;3.00;1.00;;;;;27.32;41.36;102618.13;4915715;28;45394;-79
2023/10/04 17:24:39;;;;;;;;;1.00;0.00;;;;;27.18;40.50;102595.63;4917861;28;45318;-80
2023/10/04 17:27:05;;;;;;;;;0.00;0.00;;;;;27.01;41.10;102565.44;4902189;28;45971;-80
2023/10/04 17:29:31;;;;;;;;;2.00;1.00;;;;;27.30;40.65;102609.41;4874913;28;46242;-80
2023/10/04 17:31:59;;;;;;;;;0.33;0.33;;;;;27.03;40.87;102582.13;4909962;28;45510;-80
2023/10/04 17:34:25;;;;;;;;;2.00;1.00;;;;;27.20;40.69;102614.13;4909901;28;45599;-79
2023/10/04 17:36:50;;;;;;;;;0.00;0.00;;;;;27.29;41.31;102626.47;4911727;28;47086;-79
2023/10/04 17:39:16;;;;;;;;;1.67;1.67;;;;;27.18;41.07;102614.31;4912000;28;45590;-79
2023/10/04 17:41:41;;;;;;;;;0.00;0.00;;;;;27.20;40.56;102616.81;4912812;28;45500;-80
2023/10/04 17:44:07;;;;;;;;;2.00;0.00;;;;;27.22;40.77;102620.16;4912634;28;45533;-79
2023/10/04 17:46:32;;;;;;;;;1.33;0.00;;;;;27.15;40.84;102604.81;4912518;28;45605;-80
2023/10/04 17:48:57;;;;;;;;;1.67;1.67;;;;;27.24;40.86;102629.66;4912653;28;45411;-80
2023/10/04 17:51:23;;;;;;;;;1.00;1.00;;;;;27.24;40.81;102629.66;4913260;28;45446;-80
2023/10/04 17:53:48;;;;;;;;;1.00;1.00;;;;;27.16;40.44;102617.19;4912825;28;45465;-80
2023/10/04 17:56:14;;;;;;;;;2.00;1.00;;;;;27.23;40.82;102636.00;4895544;28;46274;-79
2023/10/04 17:58:39;;;;;;;;;3.00;2.00;;;;;27.06;40.34;102606.63;4893013;28;45507;-79
2023/10/04 18:01:05;;;;;;;;;1.00;1.00;;;;;27.07;40.58;102610.16;4893756;28;45869;-79
2023/10/04 18:03:31;;;;;;;;;2.00;1.00;;;;;27.21;40.89;102629.16;4905640;28;45479;-79
2023/10/04 18:05:56;;;;;;;;;1.33;1.33;;;;;27.17;40.83;102623.31;4910305;28;46055;-79
2023/10/04 18:08:21;;;;;;;;;3.00;1.00;;;;;27.16;40.59;102622.53;4912063;28;45886;-78
2023/10/04 18:10:50;;;;;;;;;1.00;1.00;;;;;27.09;40.84;102601.97;4913070;28;45610;-79
2023/10/04 18:13:17;;;;;;;;;3.33;1.33;;;;;27.12;40.55;102609.63;4912394;28;45618;-79
2023/10/04 18:15:42;;;;;;;;;0.00;0.00;;;;;27.01;40.37;102584.94;4912513;28;47354;-79
2023/10/04 18:18:08;;;;;;;;;1.00;1.00;;;;;27.15;40.51;102609.31;4912775;28;46601;-79
2023/10/04 18:20:34;;;;;;;;;2.00;0.00;;;;;27.18;40.99;102607.13;4900520;28;45523;-80
2023/10/04 18:22:59;;;;;;;;;1.00;1.00;;;;;26.94;40.52;102576.81;4904357;28;45533;-80
2023/10/04 18:25:25;;;;;;;;;3.00;1.00;;;;;27.17;40.42;102607.28;4893683;28;47868;-80
2023/10/04 18:27:51;;;;;;;;;0.67;0.67;;;;;27.16;40.44;102611.84;4893350;28;45844;-80
2023/10/04 18:30:16;;;;;;;;;0.00;0.00;;;;;27.05;40.93;102598.81;4911329;28;46496;-80